createdAt,value
2018-10-05T00:00:24.586Z,77.23
2018-10-05T00:05:27.615Z,76.87
2018-10-05T00:10:30.679Z,76.76
2018-10-05T00:15:33.759Z,77.10
2018-10-05T00:20:36.865Z,76.87
2018-10-05T00:25:39.951Z,76.88
2018-10-05T00:30:43.037Z,77.63
2018-10-05T00:35:46.127Z,77.49
2018-10-05T00:40:54.836Z,77.49
2018-10-05T00:45:57.931Z,77.41
2018-10-05T00:51:01.015Z,76.85
2018-10-05T00:56:04.131Z,78.35
2018-10-05T01:01:07.318Z,77.92
2018-10-05T01:06:10.406Z,78.34
2018-10-05T01:11:13.519Z,77.81
2018-10-05T01:16:16.625Z,78.01
2018-10-05T01:21:19.695Z,78.42
2018-10-05T01:26:22.811Z,78.52
2018-10-05T01:31:25.912Z,78.76
2018-10-05T01:36:28.975Z,78.12
2018-10-05T01:41:32.070Z,78.61
2018-10-05T01:46:35.207Z,78.92
2018-10-05T01:51:38.296Z,78.44
2018-10-05T01:56:41.373Z,78.68
2018-10-05T02:01:44.497Z,78.30
2018-10-05T02:12:33.014Z,78.36
2018-10-05T02:17:36.204Z,77.98
2018-10-05T02:22:39.270Z,78.46
2018-10-05T02:27:42.360Z,78.78
2018-10-05T02:32:45.452Z,78.74
2018-10-05T02:37:48.537Z,79.21
2018-10-05T02:42:51.620Z,79.90
2018-10-05T02:47:54.799Z,79.89
2018-10-05T02:52:57.947Z,80.01
2018-10-05T02:58:01.001Z,79.26
2018-10-05T03:03:04.109Z,79.88
2018-10-05T03:08:07.484Z,79.88
2018-10-05T03:13:10.800Z,79.08
2018-10-05T03:18:14.238Z,78.76
2018-10-05T03:23:17.679Z,78.51
2018-10-05T03:28:21.043Z,78.97
2018-10-05T03:33:24.465Z,79.05
2018-10-05T03:38:27.915Z,79.64
2018-10-05T03:43:31.335Z,79.32
2018-10-05T03:48:34.696Z,79.80
2018-10-05T03:53:38.116Z,79.56
2018-10-05T03:58:41.543Z,79.69
2018-10-05T04:03:44.943Z,80.18
2018-10-05T04:08:48.287Z,80.37
2018-10-05T04:13:51.675Z,80.37
2018-10-05T04:18:55.045Z,80.38
2018-10-05T04:23:58.442Z,80.24
2018-10-05T04:29:01.746Z,80.64
2018-10-05T04:34:05.158Z,80.87
2018-10-05T04:39:09.954Z,80.84
2018-10-05T04:44:13.004Z,80.98
2018-10-05T04:49:16.117Z,81.28
2018-10-05T04:54:19.155Z,81.30
2018-10-05T04:59:22.264Z,81.27
2018-10-05T05:04:25.333Z,80.92
2018-10-05T05:09:28.436Z,80.12
2018-10-05T05:14:31.530Z,80.40
2018-10-05T05:19:34.651Z,79.99
2018-10-05T05:24:37.718Z,80.07
2018-10-05T05:29:40.820Z,80.09
2018-10-05T05:34:43.911Z,80.07
2018-10-05T05:39:47.003Z,80.22
2018-10-05T05:44:50.110Z,80.05
2018-10-05T05:49:53.189Z,79.76
2018-10-05T05:54:56.276Z,79.73
2018-10-05T05:59:59.341Z,79.52
2018-10-05T06:05:02.464Z,79.49
2018-10-05T06:10:05.788Z,78.51
2018-10-05T06:15:09.015Z,78.74
2018-10-05T06:20:12.180Z,78.98
2018-10-05T06:25:15.229Z,78.59
2018-10-05T06:30:18.320Z,78.65
2018-10-05T06:35:21.373Z,78.30
2018-10-05T06:40:24.455Z,77.86
2018-10-05T06:45:27.552Z,77.65
2018-10-05T06:50:30.654Z,78.07
2018-10-05T06:55:33.714Z,77.47
2018-10-05T07:00:36.924Z,77.58
2018-10-05T07:05:40.011Z,77.60
2018-10-05T07:10:43.090Z,77.17
2018-10-05T07:15:46.244Z,77.66
2018-10-05T07:20:49.268Z,77.72
2018-10-05T07:25:52.320Z,77.27
2018-10-05T07:30:55.406Z,77.79
2018-10-05T07:35:58.543Z,77.43
2018-10-05T07:41:01.583Z,76.93
2018-10-05T07:46:04.663Z,75.79
2018-10-05T07:51:07.794Z,75.28
2018-10-05T07:56:10.844Z,74.37
2018-10-05T08:01:14.082Z,74.26
2018-10-05T08:06:17.153Z,73.47
2018-10-05T08:11:20.265Z,72.46
2018-10-05T08:16:23.335Z,71.44
2018-10-05T08:21:26.461Z,70.24
2018-10-05T08:26:29.528Z,69.43
2018-10-05T08:31:32.606Z,69.42
2018-10-05T08:36:35.685Z,68.20
2018-10-05T08:41:38.737Z,67.29
2018-10-05T08:46:41.837Z,67.25
2018-10-05T08:51:44.919Z,67.10
2018-10-05T08:56:48.002Z,66.41
2018-10-05T09:01:51.079Z,66.73
2018-10-05T09:06:54.149Z,65.84
2018-10-05T09:11:57.199Z,65.94
2018-10-05T09:17:00.284Z,65.07
2018-10-05T09:22:03.412Z,64.61
2018-10-05T09:27:06.532Z,63.95
2018-10-05T09:32:09.616Z,63.94
2018-10-05T09:37:12.668Z,63.39
2018-10-05T09:42:15.716Z,63.16
2018-10-05T09:47:18.786Z,62.67
2018-10-05T09:52:22.000Z,62.13
2018-10-05T09:57:25.033Z,61.54
2018-10-05T10:02:33.591Z,61.38
2018-10-05T10:07:36.644Z,61.09
2018-10-05T10:12:39.714Z,60.50
2018-10-05T10:17:42.799Z,60.27
2018-10-05T10:22:45.864Z,59.81
2018-10-05T10:27:48.954Z,59.37
2018-10-05T10:32:52.018Z,59.77
2018-10-05T10:37:55.052Z,59.29
2018-10-05T10:42:58.162Z,58.53
2018-10-05T10:48:01.289Z,58.03
2018-10-05T10:53:04.371Z,56.86
2018-10-05T10:58:07.583Z,55.93
2018-10-05T11:03:10.699Z,56.00
2018-10-05T11:08:13.748Z,55.72
2018-10-05T11:13:16.864Z,54.35
2018-10-05T11:18:19.910Z,54.82
2018-10-05T11:23:23.353Z,54.73
2018-10-05T11:28:26.499Z,51.46
2018-10-05T11:33:29.581Z,52.57
2018-10-05T11:38:32.648Z,51.75
2018-10-05T11:43:35.715Z,51.55
2018-10-05T11:48:38.799Z,51.61
2018-10-05T11:53:41.866Z,51.72
2018-10-05T11:58:44.984Z,52.75
2018-10-05T12:03:48.304Z,51.45
2018-10-05T12:08:51.384Z,50.50
2018-10-05T12:13:54.593Z,50.57
2018-10-05T12:18:57.606Z,49.12
2018-10-05T12:24:00.901Z,48.74
2018-10-05T12:29:04.036Z,48.61
2018-10-05T12:34:07.174Z,48.14
2018-10-05T12:39:11.139Z,49.29
2018-10-05T12:44:14.240Z,48.71
2018-10-05T12:49:17.402Z,48.21
2018-10-05T12:54:20.508Z,48.81
2018-10-05T12:59:23.683Z,48.39
2018-10-05T13:04:26.772Z,48.33
2018-10-05T13:09:29.951Z,48.79
2018-10-05T13:14:33.059Z,48.24
2018-10-05T13:19:36.166Z,48.33
2018-10-05T13:24:39.298Z,47.58
2018-10-05T13:29:42.684Z,47.07
2018-10-05T13:34:45.762Z,47.61
2018-10-05T13:39:48.844Z,46.95
2018-10-05T13:44:52.387Z,47.30
2018-10-05T13:49:55.589Z,47.40
2018-10-05T13:54:58.731Z,47.21
2018-10-05T14:00:02.707Z,46.02
2018-10-05T14:05:05.835Z,46.66
2018-10-05T14:10:09.045Z,47.19
2018-10-05T14:15:12.240Z,46.64
2018-10-05T14:20:15.415Z,46.99
2018-10-05T14:25:18.601Z,46.61
2018-10-05T14:30:21.743Z,47.16
2018-10-05T14:35:24.834Z,45.97
2018-10-05T14:40:28.036Z,46.27
2018-10-05T14:45:31.099Z,46.87
2018-10-05T14:50:34.167Z,46.40
2018-10-05T14:55:37.223Z,45.68
2018-10-05T15:00:40.277Z,45.34
2018-10-05T15:05:43.422Z,46.12
2018-10-05T15:10:46.513Z,46.17
2018-10-05T15:15:49.629Z,45.26
2018-10-05T15:20:52.702Z,45.66
2018-10-05T15:25:55.887Z,45.29
2018-10-05T15:30:58.984Z,45.11
2018-10-05T15:36:02.183Z,45.61
2018-10-05T15:41:05.387Z,45.35
2018-10-05T15:46:09.757Z,46.42
2018-10-05T15:51:12.835Z,46.25
2018-10-05T15:56:15.922Z,46.18
2018-10-05T16:01:19.084Z,47.09
2018-10-05T16:06:22.191Z,47.54
2018-10-05T16:11:25.271Z,47.81
2018-10-05T16:16:28.619Z,48.22
2018-10-05T16:21:31.994Z,49.34
2018-10-05T16:26:35.078Z,49.44
2018-10-05T16:31:38.128Z,49.95
2018-10-05T16:36:41.191Z,50.88
2018-10-05T16:41:44.745Z,51.56
2018-10-05T16:46:48.049Z,51.85
2018-10-05T16:51:51.827Z,52.94
2018-10-05T16:56:54.898Z,53.36
2018-10-05T17:01:57.966Z,54.35
2018-10-05T17:07:01.094Z,54.58
2018-10-05T17:12:04.400Z,55.47
2018-10-05T17:17:07.541Z,55.85
2018-10-05T17:22:10.613Z,56.50
2018-10-05T17:27:13.687Z,57.18
2018-10-05T17:32:17.092Z,58.58
2018-10-05T17:37:20.553Z,58.90
2018-10-05T17:42:24.615Z,59.87
2018-10-05T17:47:33.120Z,60.99
2018-10-05T17:52:36.347Z,60.83
2018-10-05T17:57:39.470Z,61.50
2018-10-05T18:02:42.781Z,62.08
2018-10-05T18:07:45.835Z,62.50
2018-10-05T18:12:48.931Z,63.45
2018-10-05T18:17:51.988Z,64.47
2018-10-05T18:22:55.251Z,64.68
2018-10-05T18:27:58.299Z,65.11
2018-10-05T18:33:01.614Z,65.77
2018-10-05T18:38:04.928Z,66.18
2018-10-05T18:43:08.018Z,67.03
2018-10-05T18:48:11.088Z,67.37
2018-10-05T18:53:14.134Z,68.26
2018-10-05T18:58:17.489Z,68.04
2018-10-05T19:03:20.981Z,68.96
2018-10-05T19:08:24.043Z,69.09
2018-10-05T19:13:27.246Z,68.65
2018-10-05T19:18:30.381Z,68.56
2018-10-05T19:23:35.240Z,69.14
2018-10-05T19:28:38.384Z,68.91
2018-10-05T19:33:41.662Z,69.13
2018-10-05T19:38:45.062Z,69.57
2018-10-05T19:43:48.160Z,68.78
2018-10-05T19:48:51.488Z,66.74
2018-10-05T19:53:54.857Z,65.21
2018-10-05T19:58:57.947Z,65.04
2018-10-05T20:04:01.411Z,64.95
2018-10-05T20:09:09.267Z,64.92
2018-10-05T20:14:12.935Z,65.92
2018-10-05T20:19:18.637Z,66.59
2018-10-05T20:24:21.854Z,66.88
2018-10-05T20:29:24.940Z,67.10
2018-10-05T20:34:28.015Z,67.32
2018-10-05T20:39:31.229Z,67.96
2018-10-05T20:44:34.489Z,68.14
2018-10-05T20:49:37.551Z,68.87
2018-10-05T20:54:40.649Z,68.46
2018-10-05T20:59:43.772Z,69.36
2018-10-05T21:04:46.825Z,69.36
2018-10-05T21:09:50.613Z,70.25
2018-10-05T21:14:53.732Z,70.87
2018-10-05T21:19:56.847Z,71.34
2018-10-05T21:24:59.931Z,71.02
2018-10-05T21:30:03.093Z,71.35
2018-10-05T21:35:06.276Z,72.66
2018-10-05T21:40:09.493Z,72.39
2018-10-05T21:45:12.676Z,74.25
2018-10-05T21:50:15.739Z,74.29
2018-10-05T21:55:18.823Z,74.02
2018-10-05T22:00:21.944Z,73.70
2018-10-05T22:05:25.821Z,73.99
2018-10-05T22:10:28.902Z,73.37
2018-10-05T22:15:31.992Z,73.35
2018-10-05T22:20:35.068Z,73.55
2018-10-05T22:25:38.185Z,73.92
2018-10-05T22:30:41.306Z,73.33
2018-10-05T22:35:44.351Z,73.52
2018-10-05T22:40:47.445Z,73.52
2018-10-05T22:45:50.532Z,74.67
2018-10-05T22:50:53.583Z,74.22
2018-10-05T22:55:56.686Z,74.42
2018-10-05T23:00:59.762Z,73.83
2018-10-05T23:06:02.996Z,74.39
2018-10-05T23:11:06.069Z,74.25
2018-10-05T23:16:09.125Z,74.17
2018-10-05T23:21:12.162Z,74.04
2018-10-05T23:26:15.229Z,73.71
2018-10-05T23:31:18.311Z,74.05
2018-10-05T23:36:21.375Z,73.50
2018-10-05T23:41:24.517Z,73.11
2018-10-05T23:46:27.572Z,72.86
2018-10-05T23:51:30.640Z,72.32
2018-10-05T23:56:33.695Z,72.70
